Tropical Cyclones
[Index]
Main Index Home Page Stock Weather Photos Extreme Storms Discussion Storm News and Storm Chasing Reports Tropical Cyclones / Hurricanes / Typhoons Weather Data and Links Wild Fires / Bushfires Weather Observation Techniques Weather Picture Catalogue Tornado Pictures and Reports Stock Video Footage and DVDs for sale
Season 2013-2014 Tropical Cyclone EDILSON Track Map
Season 2013-2014 Summaries (Operational Data): [AU] [SIO] [SPAC] [SH]
<<- Previous TC | 2013-2014 Season | Next TC ->>

click for intensity scale information  Lat/long Grid: Show Hide

 Date Labels: Show Hide

Operational Tropical Cyclone Data : JTWC Advisories

Name: EDILSON
Number: 1413

02 Feb 2014 12:00 UTC to 08 Feb 2014 12:00 UTC

    date/time    lat    long     hPa   cat  kts
2014-02-02 12   11.4    56.6    1010         15          
2014-02-02 18   11.8    57.2    1010         15          
2014-02-03 00   12.3    57.8    1010         15          
2014-02-03 06   13.0    58.0    1010         15          
2014-02-03 12   13.7    58.5    1010         15          
2014-02-03 18   14.0    59.0    1004         20          
2014-02-04 00   14.5    59.4    1007         20          
2014-02-04 06   15.5    59.5    1000         30          
2014-02-04 12   16.0    59.5    1004         25          
2014-02-04 18   16.5    59.6     997         30          
2014-02-05 00   17.1    59.8     998    1    40          
2014-02-05 06   17.7    60.0     993    1    40          
2014-02-05 12   18.5    60.1     993    1    40          
2014-02-05 18   19.1    60.1     993    1    40          
2014-02-06 00   20.4    59.4     989    1    45          
2014-02-06 06   21.2    58.6     985    2    50          
2014-02-06 12   22.7    57.7     982    2    55          
2014-02-06 18   24.1    57.0     982    2    55          
2014-02-07 00   25.7    56.1     985    2    50          
2014-02-07 06   27.5    55.1     985    2    50          
2014-02-07 12   29.0    54.3     985    2    50          
2014-02-07 18   30.6    53.3     989    1    45          
2014-02-08 00   32.0    52.9     993    1    40          
2014-02-08 06   33.5    52.3     993    1    40          
2014-02-08 12   35.1    52.4     993    1    40          
Winds are 10-min average.

Tropical cyclone tracks developed by Michael Bath using operational warnings and advisories and Google Maps.


[Australian Severe Weather index] [Copyright Notice] [Email Contacts] [Search This Site] [Privacy Policy]
Document: tropical_cyclone_edilson.htm Updated: 2 May 2017